Time;durP1;ratioP1;P1;durP2;ratioP2;P2;SDS_P1;SDS_P2;PMS_P1;PMS_P2;Temp;Humidity;BMP_temperature;BMP_pressure;BME280_temperature;BME280_humidity;BME280_pressure;Samples;Min_cycle;Max_cycle;Signal;HPM_P1;HPM_P2
2021/04/14 00:01:56;;;;;;;;;;;;;;;;;;4993419;28;19928;-80
2021/04/14 00:04:22;;;;;;;;;;;;;;;;;;4993022;28;19929;-80
2021/04/14 00:06:49;;;;;;;;;;;;;;;;;;4974976;28;19925;-80
2021/04/14 00:09:16;;;;;;;;;;;;;;;;;;4992734;28;19922;-80
2021/04/14 00:11:42;;;;;;;;;;;;;;;;;;4993115;28;19926;-80
2021/04/14 00:14:09;;;;;;;;;;;;;;;;;;4992639;28;20012;-80
2021/04/14 00:16:36;;;;;;;;;;;;;;;;;;4991781;28;19976;-80
2021/04/14 00:19:03;;;;;;;;;;;;;;;;;;4974929;28;20008;-79
2021/04/14 00:21:30;;;;;;;;;;;;;;;;;;4991299;28;19977;-79
2021/04/14 00:23:57;;;;;;;;;;;;;;;;;;4990956;28;20028;-79
2021/04/14 00:26:23;;;;;;;;;;;;;;;;;;4989981;28;20103;-79
2021/04/14 00:28:50;;;;;;;;;;;;;;;;;;4974385;28;19927;-80
2021/04/14 00:31:17;;;;;;;;;;;;;;;;;;4992260;28;20016;-79
2021/04/14 00:33:43;;;;;;;;;;;;;;;;;;4992497;28;20450;-79
2021/04/14 00:36:10;;;;;;;;;;;;;;;;;;4992208;28;19925;-79
2021/04/14 00:38:39;;;;;;;;;;;;;;;;;;4992072;28;20644;-79
2021/04/14 00:41:06;;;;;;;;;;;;;;;;;;4974276;28;19963;-79
2021/04/14 00:43:32;;;;;;;;;;;;;;;;;;4974770;28;19984;-79
2021/04/14 00:45:59;;;;;;;;;;;;;;;;;;4992120;28;20020;-80
2021/04/14 00:48:28;;;;;;;;;;;;;;;;;;4992734;28;19933;-79
2021/04/14 00:50:54;;;;;;;;;;;;;;;;;;4992457;28;20290;-79
2021/04/14 00:53:21;;;;;;;;;;;;;;;;;;4992649;28;20020;-79
2021/04/14 00:55:47;;;;;;;;;;;;;;;;;;4992401;28;20028;-79
2021/04/14 00:58:14;;;;;;;;;;;;;;;;;;4974961;28;19926;-79
2021/04/14 01:00:40;;;;;;;;;;;;;;;;;;4992329;28;19922;-79
2021/04/14 01:03:07;;;;;;;;;;;;;;;;;;4992097;28;20327;-79
2021/04/14 01:05:34;;;;;;;;;;;;;;;;;;4972887;28;19928;-79
2021/04/14 01:08:00;;;;;;;;;;;;;;;;;;4972417;28;20016;-79
2021/04/14 01:10:27;;;;;;;;;;;;;;;;;;4990364;28;19955;-79
2021/04/14 01:12:53;;;;;;;;;;;;;;;;;;4991818;28;20406;-79
2021/04/14 01:15:20;;;;;;;;;;;;;;;;;;4991064;28;20016;-79
2021/04/14 01:17:47;;;;;;;;;;;;;;;;;;4991354;28;19961;-79
2021/04/14 01:20:13;;;;;;;;;;;;;;;;;;4991768;28;19922;-79
2021/04/14 01:22:40;;;;;;;;;;;;;;;;;;4991502;28;19948;-79
2021/04/14 01:25:06;;;;;;;;;;;;;;;;;;4990982;28;19926;-79
2021/04/14 01:27:33;;;;;;;;;;;;;;;;;;4991623;28;20001;-80
2021/04/14 01:30:00;;;;;;;;;;;;;;;;;;4991611;28;19975;-79
2021/04/14 01:32:29;;;;;;;;;;;;;;;;;;4992684;28;20557;-80
2021/04/14 01:34:56;;;;;;;;;;;;;;;;;;4995467;28;19926;-80
2021/04/14 01:37:22;;;;;;;;;;;;;;;;;;4977455;28;20017;-79
2021/04/14 01:39:49;;;;;;;;;;;;;;;;;;4995397;28;20357;-80
2021/04/14 01:42:15;;;;;;;;;;;;;;;;;;4995373;28;20012;-79
2021/04/14 01:44:42;;;;;;;;;;;;;;;;;;4995193;28;19997;-80
2021/04/14 01:47:09;;;;;;;;;;;;;;;;;;4978223;28;20055;-80
2021/04/14 01:49:35;;;;;;;;;;;;;;;;;;4995156;28;19980;-80
2021/04/14 01:52:02;;;;;;;;;;;;;;;;;;4977786;28;19926;-80
2021/04/14 01:54:28;;;;;;;;;;;;;;;;;;4995503;28;19953;-80
2021/04/14 01:56:55;;;;;;;;;;;;;;;;;;4994646;28;20016;-80
2021/04/14 01:59:22;;;;;;;;;;;;;;;;;;4977764;28;20049;-81
2021/04/14 02:01:49;;;;;;;;;;;;;;;;;;4995319;28;20016;-81
2021/04/14 02:04:16;;;;;;;;;;;;;;;;;;4995203;28;20016;-80
2021/04/14 02:06:42;;;;;;;;;;;;;;;;;;4994541;28;20359;-80
2021/04/14 02:09:09;;;;;;;;;;;;;;;;;;4995085;28;20009;-81
2021/04/14 02:11:36;;;;;;;;;;;;;;;;;;4994780;28;19965;-81
2021/04/14 02:14:02;;;;;;;;;;;;;;;;;;4977914;28;20008;-81
2021/04/14 02:16:29;;;;;;;;;;;;;;;;;;4977427;28;19922;-81
2021/04/14 02:18:56;;;;;;;;;;;;;;;;;;4977927;28;19944;-81
2021/04/14 02:21:23;;;;;;;;;;;;;;;;;;4994736;28;19928;-81
2021/04/14 02:23:50;;;;;;;;;;;;;;;;;;4977427;28;20020;-81
2021/04/14 02:26:16;;;;;;;;;;;;;;;;;;4994166;28;20293;-81
2021/04/14 02:28:45;;;;;;;;;;;;;;;;;;4977116;28;19928;-81
2021/04/14 02:31:12;;;;;;;;;;;;;;;;;;4975762;28;19991;-81
2021/04/14 02:33:38;;;;;;;;;;;;;;;;;;4992851;28;20568;-81
2021/04/14 02:36:05;;;;;;;;;;;;;;;;;;4975024;28;20016;-80
2021/04/14 02:38:32;;;;;;;;;;;;;;;;;;4993688;28;20374;-81
2021/04/14 02:40:59;;;;;;;;;;;;;;;;;;4976534;28;19988;-81
2021/04/14 02:43:25;;;;;;;;;;;;;;;;;;4993983;28;20049;-81
2021/04/14 02:45:52;;;;;;;;;;;;;;;;;;4993986;28;20020;-81
2021/04/14 02:48:18;;;;;;;;;;;;;;;;;;4994636;28;19925;-81
2021/04/14 02:50:45;;;;;;;;;;;;;;;;;;4994201;28;19960;-81
2021/04/14 02:53:12;;;;;;;;;;;;;;;;;;4976571;28;20040;-80
2021/04/14 02:55:39;;;;;;;;;;;;;;;;;;4994653;28;20464;-81
2021/04/14 02:58:11;;;;;;;;;;;;;;;;;;4995082;28;19964;-81
2021/04/14 03:00:38;;;;;;;;;;;;;;;;;;4976510;28;19971;-81
2021/04/14 03:03:04;;;;;;;;;;;;;;;;;;4976083;28;19965;-81
2021/04/14 03:05:32;;;;;;;;;;;;;;;;;;4993274;28;19922;-81
2021/04/14 03:07:58;;;;;;;;;;;;;;;;;;4993992;28;20020;-80
2021/04/14 03:10:25;;;;;;;;;;;;;;;;;;4976737;28;19925;-80
2021/04/14 03:12:51;;;;;;;;;;;;;;;;;;4976351;28;20016;-80
2021/04/14 03:15:18;;;;;;;;;;;;;;;;;;4993738;28;20379;-81
2021/04/14 03:17:45;;;;;;;;;;;;;;;;;;4993815;28;19983;-81
2021/04/14 03:20:12;;;;;;;;;;;;;;;;;;4993730;28;19934;-81
2021/04/14 03:22:39;;;;;;;;;;;;;;;;;;4975836;28;20004;-81
2021/04/14 03:25:06;;;;;;;;;;;;;;;;;;4976269;28;19969;-81
2021/04/14 03:27:32;;;;;;;;;;;;;;;;;;4993850;28;19994;-81
2021/04/14 03:30:06;;;;;;;;;;;;;;;;;;4993078;28;19928;-81
2021/04/14 03:32:32;;;;;;;;;;;;;;;;;;4975169;28;20348;-81
2021/04/14 03:34:59;;;;;;;;;;;;;;;;;;4976059;28;20011;-81
2021/04/14 03:37:27;;;;;;;;;;;;;;;;;;4992513;28;20011;-81
2021/04/14 03:39:53;;;;;;;;;;;;;;;;;;4993139;28;20044;-81
2021/04/14 03:42:20;;;;;;;;;;;;;;;;;;4993254;28;20339;-81
2021/04/14 03:44:46;;;;;;;;;;;;;;;;;;4993006;28;20004;-81
2021/04/14 03:47:13;;;;;;;;;;;;;;;;;;4975669;28;19922;-81
2021/04/14 03:49:40;;;;;;;;;;;;;;;;;;4993900;28;19933;-81
2021/04/14 03:52:06;;;;;;;;;;;;;;;;;;4976119;28;20105;-81
2021/04/14 03:54:33;;;;;;;;;;;;;;;;;;4993604;28;19988;-80
2021/04/14 03:56:59;;;;;;;;;;;;;;;;;;4975484;28;19964;-81
2021/04/14 03:59:26;;;;;;;;;;;;;;;;;;4993235;28;20021;-81
2021/04/14 04:01:53;;;;;;;;;;;;;;;;;;4993285;28;19932;-81
2021/04/14 04:04:19;;;;;;;;;;;;;;;;;;4976000;28;20588;-81
2021/04/14 04:06:46;;;;;;;;;;;;;;;;;;4993771;28;19921;-81
2021/04/14 04:09:12;;;;;;;;;;;;;;;;;;4993459;28;19953;-81
2021/04/14 04:11:39;;;;;;;;;;;;;;;;;;4976086;28;20017;-81
2021/04/14 04:14:06;;;;;;;;;;;;;;;;;;4992722;28;20004;-81
2021/04/14 04:16:32;;;;;;;;;;;;;;;;;;4993071;28;19969;-80
2021/04/14 04:19:00;;;;;;;;;;;;;;;;;;4975499;28;19921;-81
2021/04/14 04:21:27;;;;;;;;;;;;;;;;;;4975889;28;19969;-81
2021/04/14 04:23:53;;;;;;;;;;;;;;;;;;4993205;28;20020;-80
2021/04/14 04:26:21;;;;;;;;;;;;;;;;;;4975666;28;20020;-81
2021/04/14 04:28:47;;;;;;;;;;;;;;;;;;4983421;28;19964;-81
2021/04/14 04:31:14;;;;;;;;;;;;;;;;;;5012632;28;20489;-81
2021/04/14 04:33:42;;;;;;;;;;;;;;;;;;5001463;28;19964;-81
2021/04/14 04:36:08;;;;;;;;;;;;;;;;;;4999903;28;20013;-81
2021/04/14 04:38:35;;;;;;;;;;;;;;;;;;5002030;28;19948;-81
2021/04/14 04:41:01;;;;;;;;;;;;;;;;;;5014306;23;20399;-81
2021/04/14 04:43:28;;;;;;;;;;;;;;;;;;5000933;28;20008;-81
2021/04/14 04:45:56;;;;;;;;;;;;;;;;;;4983125;28;20545;-82
2021/04/14 04:48:22;;;;;;;;;;;;;;;;;;4999636;28;20646;-82
2021/04/14 04:50:49;;;;;;;;;;;;;;;;;;4973498;28;19933;-80
2021/04/14 04:53:16;;;;;;;;;;;;;;;;;;4972955;28;20016;-80
2021/04/14 04:55:43;;;;;;;;;;;;;;;;;;4990694;28;20325;-79
2021/04/14 04:58:10;;;;;;;;;;;;;;;;;;4973155;28;19957;-81
2021/04/14 05:00:36;;;;;;;;;;;;;;;;;;4971297;28;20533;-78
2021/04/14 05:03:03;;;;;;;;;;;;;;;;;;4989114;28;20446;-79
2021/04/14 05:05:29;;;;;;;;;;;;;;;;;;4990193;28;19960;-78
2021/04/14 05:07:56;;;;;;;;;;;;;;;;;;4995030;23;20383;-83
2021/04/14 05:10:26;;;;;;;;;;;;;;;;;;4977100;28;20329;-82
2021/04/14 05:12:53;;;;;;;;;;;;;;;;;;4990132;28;19925;-86
2021/04/14 05:15:19;;;;;;;;;;;;;;;;;;4980221;28;19980;-89
2021/04/14 05:17:46;;;;;;;;;;;;;;;;;;4980196;23;20041;-82
2021/04/14 05:20:13;;;;;;;;;;;;;;;;;;4974544;28;19967;-88
2021/04/14 05:22:39;;;;;;;;;;;;;;;;;;4958205;28;19921;-87
2021/04/14 05:25:06;;;;;;;;;;;;;;;;;;4958550;28;20009;-86
2021/04/14 05:27:33;;;;;;;;;;;;;;;;;;4957464;28;19925;-83
2021/04/14 05:29:59;;;;;;;;;;;;;;;;;;4958028;28;19968;-85
2021/04/14 05:32:26;;;;;;;;;;;;;;;;;;4960564;28;20394;-86
2021/04/14 05:34:53;;;;;;;;;;;;;;;;;;4961630;28;19934;-90
2021/04/14 05:37:20;;;;;;;;;;;;;;;;;;4956922;28;19960;-90
2021/04/14 05:39:46;;;;;;;;;;;;;;;;;;4958783;28;20017;-89
2021/04/14 05:42:13;;;;;;;;;;;;;;;;;;4959255;28;19926;-89
2021/04/14 05:44:39;;;;;;;;;;;;;;;;;;4979148;28;20442;-89
2021/04/14 05:47:06;;;;;;;;;;;;;;;;;;4961012;28;20459;-89
2021/04/14 05:49:33;;;;;;;;;;;;;;;;;;4961342;28;19933;-89
2021/04/14 05:51:59;;;;;;;;;;;;;;;;;;4962111;28;19964;-88
2021/04/14 05:54:26;;;;;;;;;;;;;;;;;;4962278;28;20334;-89
2021/04/14 05:56:52;;;;;;;;;;;;;;;;;;4961459;28;19980;-88
2021/04/14 05:59:19;;;;;;;;;;;;;;;;;;4962024;28;19965;-89
2021/04/14 06:01:46;;;;;;;;;;;;;;;;;;4962064;28;19965;-88
2021/04/14 06:04:12;;;;;;;;;;;;;;;;;;4962077;28;19922;-88
2021/04/14 06:06:39;;;;;;;;;;;;;;;;;;4962062;28;19926;-89
2021/04/14 06:09:07;;;;;;;;;;;;;;;;;;4961775;28;19928;-88
2021/04/14 06:11:34;;;;;;;;;;;;;;;;;;4961629;28;20020;-88
2021/04/14 06:14:01;;;;;;;;;;;;;;;;;;4961819;28;20350;-88
2021/04/14 06:16:27;;;;;;;;;;;;;;;;;;4961794;28;19949;-88
2021/04/14 06:18:54;;;;;;;;;;;;;;;;;;4992387;28;20008;-89
2021/04/14 06:21:21;;;;;;;;;;;;;;;;;;4978470;28;19961;-89
2021/04/14 06:23:47;;;;;;;;;;;;;;;;;;4977593;28;20035;-89
2021/04/14 06:26:40;;;;;;;;;;;;;;;;;;4977915;28;20037;-89
2021/04/14 06:29:04;;;;;;;;;;;;;;;;;;4994747;28;20335;-90
2021/04/14 06:31:39;;;;;;;;;;;;;;;;;;4978628;28;19976;-90
2021/04/14 06:34:10;;;;;;;;;;;;;;;;;;4977763;28;20397;-90
2021/04/14 06:36:37;;;;;;;;;;;;;;;;;;4977393;28;19976;-90
2021/04/14 06:39:05;;;;;;;;;;;;;;;;;;4976984;28;19925;-90
2021/04/14 06:44:31;;;;;;;;;;;;;;;;;;4950948;28;19964;-90
2021/04/14 06:46:58;;;;;;;;;;;;;;;;;;4994863;28;20029;-90
2021/04/14 06:49:24;;;;;;;;;;;;;;;;;;4994980;28;19925;-90
2021/04/14 06:51:51;;;;;;;;;;;;;;;;;;4979225;28;20027;-96
2021/04/14 06:54:18;;;;;;;;;;;;;;;;;;4979185;28;19965;-93
2021/04/14 06:56:56;;;;;;;;;;;;;;;;;;4979599;28;19921;-94
2021/04/14 06:59:23;;;;;;;;;;;;;;;;;;4979245;28;19964;-93
2021/04/14 07:01:52;;;;;;;;;;;;;;;;;;4997596;28;19960;-94
2021/04/14 07:04:19;;;;;;;;;;;;;;;;;;5015645;28;20369;-92
2021/04/14 07:06:45;;;;;;;;;;;;;;;;;;4998100;28;20013;-93
2021/04/14 07:09:12;;;;;;;;;;;;;;;;;;5009507;28;19953;-92
2021/04/14 07:11:39;;;;;;;;;;;;;;;;;;4995809;28;19968;-93
2021/04/14 07:14:06;;;;;;;;;;;;;;;;;;4979632;28;20021;-92
2021/04/14 07:19:56;;;;;;;;;;;;;;;;;;4996710;28;19917;-92
2021/04/14 07:22:22;;;;;;;;;;;;;;;;;;4979231;28;19973;-90
2021/04/14 07:24:49;;;;;;;;;;;;;;;;;;4996481;28;19953;-94
2021/04/14 07:27:20;;;;;;;;;;;;;;;;;;5009501;28;19922;-87
2021/04/14 07:29:46;;;;;;;;;;;;;;;;;;4994350;28;19922;-86
2021/04/14 07:32:13;;;;;;;;;;;;;;;;;;5010436;28;19960;-89
2021/04/14 07:34:39;;;;;;;;;;;;;;;;;;5010957;28;20351;-89
2021/04/14 07:37:06;;;;;;;;;;;;;;;;;;4995164;28;20002;-88
2021/04/14 07:39:38;;;;;;;;;;;;;;;;;;4977545;28;19976;-85
2021/04/14 07:42:05;;;;;;;;;;;;;;;;;;4976894;28;20013;-85
2021/04/14 07:44:32;;;;;;;;;;;;;;;;;;4977027;28;20008;-86
2021/04/14 07:46:59;;;;;;;;;;;;;;;;;;4976537;28;19922;-85
2021/04/14 07:49:31;;;;;;;;;;;;;;;;;;4976332;28;20571;-85
2021/04/14 07:51:58;;;;;;;;;;;;;;;;;;4976405;28;20667;-86
2021/04/14 07:54:26;;;;;;;;;;;;;;;;;;4976531;28;20013;-86
2021/04/14 07:56:52;;;;;;;;;;;;;;;;;;4976409;28;19964;-86
2021/04/14 07:59:19;;;;;;;;;;;;;;;;;;4987862;28;20019;-87
2021/04/14 08:01:45;;;;;;;;;;;;;;;;;;4995696;28;19957;-86
2021/04/14 08:04:12;;;;;;;;;;;;;;;;;;4996320;28;19961;-86
2021/04/14 08:06:39;;;;;;;;;;;;;;;;;;4996184;28;19922;-86
2021/04/14 08:09:06;;;;;;;;;;;;;;;;;;4986529;28;19922;-85
2021/04/14 08:11:33;;;;;;;;;;;;;;;;;;4993933;28;20020;-86
2021/04/14 08:14:02;;;;;;;;;;;;;;;;;;4976652;28;19953;-85
2021/04/14 08:16:34;;;;;;;;;;;;;;;;;;4977156;28;20020;-86
2021/04/14 08:19:00;;;;;;;;;;;;;;;;;;4976410;28;19929;-85
2021/04/14 08:21:27;;;;;;;;;;;;;;;;;;4976456;28;19921;-85
2021/04/14 08:24:05;;;;;;;;;;;;;;;;;;4977723;28;19943;-85
2021/04/14 08:26:32;;;;;;;;;;;;;;;;;;4976036;28;19971;-86
2021/04/14 08:29:06;;;;;;;;;;;;;;;;;;4993407;28;19977;-85
2021/04/14 08:31:35;;;;;;;;;;;;;;;;;;4976584;28;19932;-86
2021/04/14 08:34:02;;;;;;;;;;;;;;;;;;4976201;28;19984;-88
2021/04/14 08:36:28;;;;;;;;;;;;;;;;;;4993406;28;20648;-88
2021/04/14 08:38:56;;;;;;;;;;;;;;;;;;4993724;28;19944;-89
2021/04/14 08:41:23;;;;;;;;;;;;;;;;;;5008460;28;20012;-88
2021/04/14 08:43:52;;;;;;;;;;;;;;;;;;5008279;28;20005;-88
2021/04/14 08:46:19;;;;;;;;;;;;;;;;;;4991071;28;20367;-88
2021/04/14 08:48:46;;;;;;;;;;;;;;;;;;4973880;28;19922;-88
2021/04/14 08:51:12;;;;;;;;;;;;;;;;;;4973944;28;19965;-86
2021/04/14 08:56:50;;;;;;;;;;;;;;;;;;4995889;23;19963;-80
2021/04/14 08:59:16;;;;;;;;;;;;;;;;;;4974335;28;20024;-83
2021/04/14 09:01:43;;;;;;;;;;;;;;;;;;4975317;28;20036;-83
2021/04/14 09:04:09;;;;;;;;;;;;;;;;;;4975624;28;20008;-83
2021/04/14 09:06:37;;;;;;;;;;;;;;;;;;4975531;28;19922;-83
2021/04/14 09:09:04;;;;;;;;;;;;;;;;;;4975865;28;19922;-83
2021/04/14 09:11:38;;;;;;;;;;;;;;;;;;4975587;28;19969;-82
2021/04/14 09:14:09;;;;;;;;;;;;;;;;;;4994237;28;20016;-87
2021/04/14 09:16:36;;;;;;;;;;;;;;;;;;4992965;28;19960;-87
2021/04/14 09:19:03;;;;;;;;;;;;;;;;;;4993144;28;19921;-86
2021/04/14 09:21:30;;;;;;;;;;;;;;;;;;4975768;28;19964;-86
2021/04/14 09:23:56;;;;;;;;;;;;;;;;;;4975382;28;20339;-87
2021/04/14 09:26:24;;;;;;;;;;;;;;;;;;4992011;28;20653;-86
2021/04/14 09:28:50;;;;;;;;;;;;;;;;;;4975892;28;19979;-86
2021/04/14 09:31:17;;;;;;;;;;;;;;;;;;4975929;28;20020;-87
2021/04/14 09:33:45;;;;;;;;;;;;;;;;;;4993861;28;19921;-86
2021/04/14 09:36:12;;;;;;;;;;;;;;;;;;4992791;28;19922;-85
2021/04/14 09:38:48;;;;;;;;;;;;;;;;;;4993015;28;19921;-85
2021/04/14 09:41:14;;;;;;;;;;;;;;;;;;4993109;28;19972;-85
2021/04/14 09:43:41;;;;;;;;;;;;;;;;;;4992814;28;20012;-85
2021/04/14 09:46:08;;;;;;;;;;;;;;;;;;4975222;28;20717;-84
2021/04/14 09:48:35;;;;;;;;;;;;;;;;;;4992901;28;20024;-87
2021/04/14 09:51:05;;;;;;;;;;;;;;;;;;4992861;28;19929;-84
2021/04/14 09:53:31;;;;;;;;;;;;;;;;;;4976856;28;20016;-84
2021/04/14 09:55:59;;;;;;;;;;;;;;;;;;4996334;28;19961;-85
2021/04/14 09:58:26;;;;;;;;;;;;;;;;;;4979378;28;19925;-86
2021/04/14 10:00:52;;;;;;;;;;;;;;;;;;4979137;28;20688;-85
2021/04/14 10:03:19;;;;;;;;;;;;;;;;;;4997731;28;20028;-86
2021/04/14 10:05:49;;;;;;;;;;;;;;;;;;4979580;28;19922;-85
2021/04/14 10:08:16;;;;;;;;;;;;;;;;;;4978977;28;19921;-84
2021/04/14 10:10:44;;;;;;;;;;;;;;;;;;4979227;28;19972;-85
2021/04/14 10:13:11;;;;;;;;;;;;;;;;;;4979151;28;19922;-86
2021/04/14 10:15:38;;;;;;;;;;;;;;;;;;4979008;28;19922;-86
2021/04/14 10:18:04;;;;;;;;;;;;;;;;;;4979268;28;20038;-86
2021/04/14 10:23:14;;;;;;;;;;;;;;;;;;4988697;28;19984;-86
2021/04/14 10:25:41;;;;;;;;;;;;;;;;;;4978507;28;20020;-88
2021/04/14 10:28:07;;;;;;;;;;;;;;;;;;4979104;28;19953;-88
2021/04/14 10:30:34;;;;;;;;;;;;;;;;;;4979085;28;20438;-88
2021/04/14 10:35:43;;;;;;;;;;;;;;;;;;4995807;28;19979;-85
2021/04/14 10:38:10;;;;;;;;;;;;;;;;;;4978886;28;19968;-85
2021/04/14 10:40:37;;;;;;;;;;;;;;;;;;4996041;28;20671;-86
2021/04/14 10:43:04;;;;;;;;;;;;;;;;;;4978581;28;20017;-85
2021/04/14 10:45:30;;;;;;;;;;;;;;;;;;4995480;28;20349;-85
2021/04/14 10:47:57;;;;;;;;;;;;;;;;;;4979038;28;19976;-85
2021/04/14 10:50:23;;;;;;;;;;;;;;;;;;4995933;28;19980;-84
2021/04/14 10:52:52;;;;;;;;;;;;;;;;;;4995753;28;20004;-85
2021/04/14 10:55:19;;;;;;;;;;;;;;;;;;4995380;28;19957;-84
2021/04/14 10:57:50;;;;;;;;;;;;;;;;;;4978142;28;20024;-85
2021/04/14 11:00:16;;;;;;;;;;;;;;;;;;4995537;28;20366;-84
2021/04/14 11:02:43;;;;;;;;;;;;;;;;;;4977732;28;20008;-84
2021/04/14 11:05:10;;;;;;;;;;;;;;;;;;4993627;28;19925;-84
2021/04/14 11:07:36;;;;;;;;;;;;;;;;;;4977677;28;19972;-84
2021/04/14 11:10:08;;;;;;;;;;;;;;;;;;4977733;28;19928;-84
2021/04/14 11:12:35;;;;;;;;;;;;;;;;;;4995631;28;19922;-84
2021/04/14 11:15:02;;;;;;;;;;;;;;;;;;4995404;28;19921;-85
2021/04/14 11:17:28;;;;;;;;;;;;;;;;;;4994626;28;20374;-84
2021/04/14 11:19:55;;;;;;;;;;;;;;;;;;4995031;28;19948;-85
2021/04/14 11:22:22;;;;;;;;;;;;;;;;;;4994448;28;19965;-85
2021/04/14 11:24:48;;;;;;;;;;;;;;;;;;4994581;28;19976;-85
2021/04/14 11:27:15;;;;;;;;;;;;;;;;;;4977609;28;19960;-85
2021/04/14 11:29:42;;;;;;;;;;;;;;;;;;4977702;28;19964;-84
2021/04/14 11:32:08;;;;;;;;;;;;;;;;;;4978383;28;19968;-85
2021/04/14 11:34:35;;;;;;;;;;;;;;;;;;4994770;28;19925;-84
2021/04/14 11:37:03;;;;;;;;;;;;;;;;;;4977111;28;19961;-84
2021/04/14 11:39:30;;;;;;;;;;;;;;;;;;4976929;28;20402;-84
2021/04/14 11:41:57;;;;;;;;;;;;;;;;;;4977662;28;19968;-85
2021/04/14 11:44:23;;;;;;;;;;;;;;;;;;4977337;28;19926;-84
2021/04/14 11:46:50;;;;;;;;;;;;;;;;;;4977025;28;19972;-84
2021/04/14 11:49:36;;;;;;;;;;;;;;;;;;4979899;28;19922;-85
2021/04/14 11:52:04;;;;;;;;;;;;;;;;;;4977500;28;19928;-84
2021/04/14 11:54:31;;;;;;;;;;;;;;;;;;4976902;28;19928;-85
2021/04/14 11:56:58;;;;;;;;;;;;;;;;;;4976599;28;20366;-86
2021/04/14 11:59:24;;;;;;;;;;;;;;;;;;4976393;28;20037;-85
2021/04/14 12:01:51;;;;;;;;;;;;;;;;;;4976948;28;19972;-85
2021/04/14 12:04:18;;;;;;;;;;;;;;;;;;4994028;28;19921;-84
2021/04/14 12:06:44;;;;;;;;;;;;;;;;;;4993691;28;20016;-84
2021/04/14 12:09:11;;;;;;;;;;;;;;;;;;4976379;28;20359;-83
2021/04/14 12:11:37;;;;;;;;;;;;;;;;;;4993651;28;19984;-84
2021/04/14 12:14:06;;;;;;;;;;;;;;;;;;4976475;28;19925;-84
2021/04/14 12:16:34;;;;;;;;;;;;;;;;;;4977514;28;20039;-84
2021/04/14 12:19:01;;;;;;;;;;;;;;;;;;4994156;28;19922;-84
2021/04/14 12:21:27;;;;;;;;;;;;;;;;;;4976959;28;20421;-84
2021/04/14 12:23:54;;;;;;;;;;;;;;;;;;4976445;28;19980;-84
2021/04/14 12:26:21;;;;;;;;;;;;;;;;;;4976006;28;19957;-84
2021/04/14 12:28:47;;;;;;;;;;;;;;;;;;4993628;28;19921;-84
2021/04/14 12:31:14;;;;;;;;;;;;;;;;;;4976548;28;20363;-84
2021/04/14 12:33:48;;;;;;;;;;;;;;;;;;4993580;28;20428;-84
2021/04/14 12:36:15;;;;;;;;;;;;;;;;;;4975833;28;20020;-84
2021/04/14 12:38:42;;;;;;;;;;;;;;;;;;4976527;28;19921;-84
2021/04/14 12:41:08;;;;;;;;;;;;;;;;;;4976493;28;19964;-83
2021/04/14 12:43:35;;;;;;;;;;;;;;;;;;4993830;28;19965;-84
2021/04/14 12:46:01;;;;;;;;;;;;;;;;;;4976086;28;19928;-84
2021/04/14 12:48:28;;;;;;;;;;;;;;;;;;4993679;28;19968;-84
2021/04/14 12:50:55;;;;;;;;;;;;;;;;;;4975793;28;19932;-84
2021/04/14 12:53:21;;;;;;;;;;;;;;;;;;4976206;28;20008;-84
2021/04/14 12:55:48;;;;;;;;;;;;;;;;;;4975762;28;19922;-84
2021/04/14 12:58:14;;;;;;;;;;;;;;;;;;4993533;28;19965;-85
2021/04/14 13:00:41;;;;;;;;;;;;;;;;;;4976272;28;20020;-84
2021/04/14 13:03:09;;;;;;;;;;;;;;;;;;4975825;28;19965;-84
2021/04/14 13:05:36;;;;;;;;;;;;;;;;;;4975469;28;19976;-84
2021/04/14 13:08:03;;;;;;;;;;;;;;;;;;4975526;28;19976;-84
2021/04/14 13:10:29;;;;;;;;;;;;;;;;;;4992876;28;19925;-84
2021/04/14 13:12:56;;;;;;;;;;;;;;;;;;4992907;28;19988;-84
2021/04/14 13:15:22;;;;;;;;;;;;;;;;;;4974926;28;19968;-85
2021/04/14 13:20:36;;;;;;;;;;;;;;;;;;4992884;28;19968;-85
2021/04/14 13:23:03;;;;;;;;;;;;;;;;;;4975797;28;19921;-85
2021/04/14 13:25:29;;;;;;;;;;;;;;;;;;4975859;28;20008;-85
2021/04/14 13:27:59;;;;;;;;;;;;;;;;;;4993282;28;19925;-85
2021/04/14 13:30:27;;;;;;;;;;;;;;;;;;4997556;28;20009;-85
2021/04/14 13:32:54;;;;;;;;;;;;;;;;;;4979643;28;19968;-85
2021/04/14 13:35:20;;;;;;;;;;;;;;;;;;4979908;28;19925;-86
2021/04/14 13:37:47;;;;;;;;;;;;;;;;;;4979248;28;19970;-85
2021/04/14 13:40:16;;;;;;;;;;;;;;;;;;4979273;28;20403;-85
2021/04/14 13:42:42;;;;;;;;;;;;;;;;;;4979469;28;20008;-85
2021/04/14 13:45:10;;;;;;;;;;;;;;;;;;4979517;28;20622;-85
2021/04/14 13:47:36;;;;;;;;;;;;;;;;;;4979069;28;20707;-85
2021/04/14 13:50:03;;;;;;;;;;;;;;;;;;4979696;28;19925;-86
2021/04/14 13:52:37;;;;;;;;;;;;;;;;;;4996479;28;20064;-86
2021/04/14 13:55:03;;;;;;;;;;;;;;;;;;4979136;28;20080;-85
2021/04/14 13:57:30;;;;;;;;;;;;;;;;;;4979806;28;20012;-85
2021/04/14 13:59:58;;;;;;;;;;;;;;;;;;4979553;28;19922;-85
2021/04/14 14:02:27;;;;;;;;;;;;;;;;;;4979020;28;19973;-85
2021/04/14 14:04:53;;;;;;;;;;;;;;;;;;4979749;28;20033;-85
2021/04/14 14:07:20;;;;;;;;;;;;;;;;;;4983518;23;19922;-85
2021/04/14 14:09:48;;;;;;;;;;;;;;;;;;4972624;28;19969;-86
2021/04/14 14:12:14;;;;;;;;;;;;;;;;;;4971737;28;20379;-86
2021/04/14 14:14:41;;;;;;;;;;;;;;;;;;4974905;28;20025;-86
2021/04/14 14:17:07;;;;;;;;;;;;;;;;;;4976270;28;19993;-86
2021/04/14 14:19:34;;;;;;;;;;;;;;;;;;4975471;28;19922;-85
2021/04/14 14:22:01;;;;;;;;;;;;;;;;;;4975294;28;20008;-85
2021/04/14 14:24:28;;;;;;;;;;;;;;;;;;4975073;28;20356;-85
2021/04/14 14:26:54;;;;;;;;;;;;;;;;;;4976049;28;20406;-86
2021/04/14 14:29:21;;;;;;;;;;;;;;;;;;4976421;28;19960;-82
2021/04/14 14:31:47;;;;;;;;;;;;;;;;;;4975085;28;20374;-81
2021/04/14 14:34:15;;;;;;;;;;;;;;;;;;4974551;28;19926;-82
2021/04/14 14:36:47;;;;;;;;;;;;;;;;;;4978788;28;19976;-84
2021/04/14 14:39:14;;;;;;;;;;;;;;;;;;4974629;28;19957;-85
2021/04/14 14:41:41;;;;;;;;;;;;;;;;;;4973070;28;20433;-85
2021/04/14 14:44:07;;;;;;;;;;;;;;;;;;4974469;28;19964;-86
2021/04/14 14:49:09;;;;;;;;;;;;;;;;;;4972668;28;19929;-84
2021/04/14 14:51:42;;;;;;;;;;;;;;;;;;4976107;28;20005;-85
2021/04/14 14:54:11;;;;;;;;;;;;;;;;;;4971134;28;19922;-84
2021/04/14 14:56:40;;;;;;;;;;;;;;;;;;4981570;28;19968;-85
2021/04/14 14:59:06;;;;;;;;;;;;;;;;;;4990713;28;19989;-83
2021/04/14 15:01:33;;;;;;;;;;;;;;;;;;4975601;28;20684;-83
2021/04/14 15:04:00;;;;;;;;;;;;;;;;;;4974312;28;19929;-84
2021/04/14 15:06:27;;;;;;;;;;;;;;;;;;4954011;28;20028;-81
2021/04/14 15:12:03;;;;;;;;;;;;;;;;;;4994007;23;20021;-81
2021/04/14 15:14:31;;;;;;;;;;;;;;;;;;4974175;28;20047;-81
2021/04/14 15:16:58;;;;;;;;;;;;;;;;;;4990410;28;20354;-82
2021/04/14 15:19:25;;;;;;;;;;;;;;;;;;4975563;28;19926;-81
2021/04/14 15:21:51;;;;;;;;;;;;;;;;;;4994084;28;20030;-82
2021/04/14 15:24:18;;;;;;;;;;;;;;;;;;4993895;28;19930;-80
2021/04/14 15:26:44;;;;;;;;;;;;;;;;;;4994776;28;19925;-81
2021/04/14 15:29:11;;;;;;;;;;;;;;;;;;4976833;28;19965;-84
2021/04/14 15:31:38;;;;;;;;;;;;;;;;;;4970075;28;19930;-83
2021/04/14 15:34:08;;;;;;;;;;;;;;;;;;4978390;28;19925;-81
2021/04/14 15:36:36;;;;;;;;;;;;;;;;;;4977972;28;19922;-81
2021/04/14 15:39:03;;;;;;;;;;;;;;;;;;4978303;28;20450;-82
2021/04/14 15:41:30;;;;;;;;;;;;;;;;;;4977581;28;19922;-81
2021/04/14 15:43:57;;;;;;;;;;;;;;;;;;4977413;28;19945;-80
2021/04/14 15:46:25;;;;;;;;;;;;;;;;;;4976487;28;19960;-81
2021/04/14 15:48:52;;;;;;;;;;;;;;;;;;4977488;28;19932;-82
2021/04/14 15:51:22;;;;;;;;;;;;;;;;;;4976720;28;20008;-82
2021/04/14 15:53:49;;;;;;;;;;;;;;;;;;4976966;28;20274;-81
2021/04/14 15:56:18;;;;;;;;;;;;;;;;;;4959445;28;20386;-81
2021/04/14 15:58:45;;;;;;;;;;;;;;;;;;5009438;28;20359;-81
2021/04/14 16:01:25;;;;;;;;;;;;;;;;;;4993972;28;20008;-80
2021/04/14 16:03:51;;;;;;;;;;;;;;;;;;4976514;28;19922;-79
2021/04/14 16:06:18;;;;;;;;;;;;;;;;;;4976612;28;19926;-80
2021/04/14 16:08:45;;;;;;;;;;;;;;;;;;4976672;28;20021;-81
2021/04/14 16:11:17;;;;;;;;;;;;;;;;;;4976433;28;19926;-84
2021/04/14 16:13:49;;;;;;;;;;;;;;;;;;4976294;28;20437;-86
2021/04/14 16:16:15;;;;;;;;;;;;;;;;;;4976531;28;19921;-86
2021/04/14 16:18:42;;;;;;;;;;;;;;;;;;4993003;28;20348;-82
2021/04/14 16:23:40;;;;;;;;;;;;;;;;;;4993131;28;20032;-83
2021/04/14 16:26:07;;;;;;;;;;;;;;;;;;4976026;28;19976;-83
2021/04/14 16:28:34;;;;;;;;;;;;;;;;;;4976545;28;19925;-82
2021/04/14 16:33:31;;;;;;;;;;;;;;;;;;4994137;28;20005;-82
2021/04/14 16:35:58;;;;;;;;;;;;;;;;;;4996231;28;20279;-83
2021/04/14 16:38:24;;;;;;;;;;;;;;;;;;4976301;28;19926;-79
2021/04/14 16:40:52;;;;;;;;;;;;;;;;;;4975816;28;19926;-80
2021/04/14 16:43:18;;;;;;;;;;;;;;;;;;4975609;28;20008;-79
2021/04/14 16:45:46;;;;;;;;;;;;;;;;;;4993011;28;19928;-79
2021/04/14 16:48:14;;;;;;;;;;;;;;;;;;4975537;28;20340;-82
2021/04/14 16:50:40;;;;;;;;;;;;;;;;;;4975705;28;20397;-82
2021/04/14 16:53:08;;;;;;;;;;;;;;;;;;4974936;28;20028;-83
2021/04/14 16:55:44;;;;;;;;;;;;;;;;;;4976136;28;19922;-82
2021/04/14 16:58:16;;;;;;;;;;;;;;;;;;4976454;28;20009;-84
2021/04/14 17:00:45;;;;;;;;;;;;;;;;;;4976997;28;19925;-88
2021/04/14 17:03:14;;;;;;;;;;;;;;;;;;4991449;28;19922;-83
2021/04/14 17:05:53;;;;;;;;;;;;;;;;;;5003704;28;19972;-89
2021/04/14 17:08:21;;;;;;;;;;;;;;;;;;4997481;28;19941;-88
2021/04/14 17:10:50;;;;;;;;;;;;;;;;;;4991620;28;19985;-89
2021/04/14 17:16:03;;;;;;;;;;;;;;;;;;4985356;28;19934;-86
2021/04/14 17:18:30;;;;;;;;;;;;;;;;;;4992781;28;19922;-83